Weather History for KHEF - March, 2013

Change the Weather History Date:

Saturday, March 23, 2013

  Actual Average Record
Temperature  
Mean Temperature 38 °F -  
Max Temperature 55 °F 54 °F 82 °F (2012)
Min Temperature 21 °F 32 °F 17 °F (2002)
Degree Days  
Heating Degree Days 27    
Moisture  
Dew Point 22 °F    
Average Humidity 57    
Maximum Humidity 100    
Minimum Humidity 23    
Precipitation  
Precipitation 0.00 in - - ()
Sea Level Pressure  
Sea Level Pressure 29.99 in    
Wind  
Wind Speed 3 mph (NW)    
Max Wind Speed 14 mph    
Max Gust Speed 22 mph    
Visibility 10 miles    
Events      
Averages and records for this station are not official NWS values.
T = Trace of Precipitation, MM = Missing Value Source: NWS Daily Summary

Daily Weather History Graph

Daily Weather History Graph

Search for Another Location

Airport or City:

Trip Planner

Search our weather history database for the weather conditions in past years. The results will help you decide how hot, cold, wet, or windy it might be!

Date:

Astronomy

Mar. 23, 2013 Rise Set
Actual Time 7:08 AM EDT 7:25 PM EDT
Civil Twilight 6:41 AM EDT 7:51 PM EDT
Nautical Twilight 6:10 AM EDT 8:22 PM EDT
Astronomical Twilight 5:39 AM EDT 8:54 PM EDT
Moon 3:51 PM EDT (3/23) 4:41 AM EDT (3/23)
Length of Visible Light 13h 09m
Length of Day
12h 16m
Waxing Gibbous, 85% of the Moon is Illuminated
Mar 23
Waxing Gibbous
Mar 27
Full
Apr 3
Last Quarter
Apr 10
New
Apr 18
First Quarter

Hourly Weather History & Observations

Time (EDT) Temp. Windchill Dew Point Humidity Pressure Visibility Wind Dir Wind Speed Gust Speed Precip Events Conditions
12:15 AM 30.2 °F - 26.6 °F 86% 30.02 in 10.0 mi Calm Calm - N/A   Clear
12:35 AM 28.4 °F 24.6 °F 24.8 °F 86% 30.02 in 10.0 mi NNW 3.5 mph - N/A   Clear
12:55 AM 28.4 °F 23.3 °F 23.0 °F 80% 30.01 in 10.0 mi North 4.6 mph - N/A   Clear
1:15 AM 28.4 °F - 24.8 °F 86% 30.02 in 10.0 mi Calm Calm - N/A   Clear
1:35 AM 28.4 °F - 24.8 °F 86% 30.02 in 10.0 mi Calm Calm - N/A   Clear
1:55 AM 28.4 °F - 26.6 °F 93% 30.02 in 10.0 mi Calm Calm - N/A   Clear
2:15 AM 28.4 °F 24.6 °F 24.8 °F 86% 30.01 in 10.0 mi North 3.5 mph - N/A   Clear
2:35 AM 28.4 °F 23.3 °F 23.0 °F 80% 30.01 in 10.0 mi North 4.6 mph - N/A   Clear
2:55 AM 24.8 °F - 21.2 °F 86% 30.02 in 10.0 mi Calm Calm - N/A   Clear
3:15 AM 26.6 °F - 24.8 °F 93% 30.01 in 10.0 mi Calm Calm - N/A   Clear
3:35 AM 24.8 °F - 24.8 °F 100% 30.01 in 10.0 mi Calm Calm - N/A   Clear
3:55 AM 24.8 °F - 23.0 °F 93% 30.01 in 10.0 mi Calm Calm - N/A   Clear
4:15 AM 24.8 °F - 21.2 °F 86% 30.01 in 10.0 mi Calm Calm - N/A   Clear
4:35 AM 23.0 °F - 21.2 °F 93% 30.01 in 10.0 mi Calm Calm - N/A   Clear
4:55 AM 24.8 °F - 23.0 °F 93% 30.01 in 10.0 mi Calm Calm - N/A   Clear
5:15 AM 23.0 °F - 21.2 °F 93% 30.01 in 10.0 mi Calm Calm - N/A   Clear
5:35 AM 23.0 °F - 21.2 °F 93% 30.01 in 10.0 mi Calm Calm - N/A   Clear
5:55 AM 23.0 °F - 21.2 °F 93% 30.01 in 10.0 mi Calm Calm - N/A   Clear
6:15 AM 21.2 °F - 19.4 °F 93% 30.02 in 10.0 mi Calm Calm - N/A   Clear
6:35 AM 21.2 °F - 19.4 °F 93% 30.02 in 10.0 mi Calm Calm - N/A   Clear
6:55 AM 21.2 °F - 21.2 °F 100% 30.03 in 10.0 mi Calm Calm - N/A   Clear
7:15 AM 21.2 °F - 21.2 °F 100% 30.03 in 10.0 mi Calm Calm - N/A   Clear
7:35 AM 21.2 °F - 19.4 °F 93% 30.04 in 10.0 mi Calm Calm - N/A   Clear
7:55 AM 24.8 °F - 24.8 °F 100% 30.04 in 10.0 mi Calm Calm - N/A   Clear
8:15 AM 26.6 °F - 26.6 °F 100% 30.05 in 10.0 mi Calm Calm - N/A   Clear
8:35 AM 30.2 °F - 28.4 °F 93% 30.05 in 10.0 mi Calm Calm - N/A   Clear
8:55 AM 33.8 °F - 26.6 °F 75% 30.04 in 10.0 mi Calm Calm - N/A   Clear
9:15 AM 33.8 °F - 26.6 °F 75% 30.04 in 10.0 mi Calm Calm - N/A   Clear
9:35 AM 37.4 °F 33.8 °F 28.4 °F 70% 30.04 in 10.0 mi South 4.6 mph - N/A   Clear
9:55 AM 39.2 °F 37.0 °F 24.8 °F 56% 30.05 in 10.0 mi WSW 3.5 mph - N/A   Clear
10:15 AM 41.0 °F 39.0 °F 24.8 °F 53% 30.05 in 10.0 mi West 3.5 mph - N/A   Clear
10:35 AM 42.8 °F 40.1 °F 21.2 °F 42% 30.05 in 10.0 mi SW 4.6 mph - N/A   Clear
10:45 AM 44.6 °F 42.2 °F 21.2 °F 39% 30.05 in 10.0 mi WSW 4.6 mph - N/A   Clear
10:55 AM 44.6 °F 41.4 °F 21.2 °F 39% 30.05 in 10.0 mi West 5.8 mph - N/A   Clear
11:15 AM 46.4 °F 42.9 °F 21.2 °F 37% 30.03 in 10.0 mi West 6.9 mph 17.3 mph N/A   Clear
11:35 AM 46.4 °F 43.5 °F 21.2 °F 37% 30.02 in 10.0 mi West 5.8 mph - N/A   Clear
11:45 AM 44.6 °F 42.2 °F 21.2 °F 39% 30.02 in 10.0 mi West 4.6 mph - N/A   Clear
11:55 AM 44.6 °F 41.4 °F 21.2 °F 39% 30.01 in 10.0 mi WNW 5.8 mph - N/A   Clear
12:15 PM 48.2 °F - 21.2 °F 34% 30.00 in 10.0 mi WNW 11.5 mph 21.9 mph N/A   Clear
12:35 PM 50.0 °F - 21.2 °F 32% 29.99 in 10.0 mi WNW 9.2 mph - N/A   Clear
12:55 PM 50.0 °F - 19.4 °F 30% 29.99 in 10.0 mi WNW 4.6 mph 17.3 mph N/A   Clear
1:15 PM 51.8 °F - 19.4 °F 28% 29.98 in 10.0 mi NW 12.7 mph 17.3 mph N/A   Clear
1:35 PM 51.8 °F - 19.4 °F 28% 29.97 in 10.0 mi WNW 11.5 mph 18.4 mph N/A   Clear
1:55 PM 51.8 °F - 19.4 °F 28% 29.96 in 10.0 mi NW 10.4 mph - N/A   Clear
2:15 PM 51.8 °F - 19.4 °F 28% 29.95 in 10.0 mi NNW 11.5 mph 17.3 mph N/A   Clear
2:35 PM 53.6 °F - 19.4 °F 26% 29.94 in 10.0 mi WSW 9.2 mph 19.6 mph N/A   Clear
2:55 PM 53.6 °F - 19.4 °F 26% 29.94 in 10.0 mi NW 12.7 mph 19.6 mph N/A   Clear
3:15 PM 53.6 °F - 19.4 °F 26% 29.94 in 10.0 mi West 13.8 mph 18.4 mph N/A   Clear
3:35 PM 53.6 °F - 19.4 °F 26% 29.93 in 10.0 mi WSW 5.8 mph 18.4 mph N/A   Clear
3:55 PM 55.4 °F - 19.4 °F 25% 29.92 in 10.0 mi WNW 12.7 mph 18.4 mph N/A   Clear
4:15 PM 55.4 °F - 19.4 °F 25% 29.92 in 10.0 mi NW 12.7 mph 19.6 mph N/A   Clear
4:35 PM 55.4 °F - 19.4 °F 25% 29.91 in 10.0 mi WNW 8.1 mph - N/A   Clear
4:55 PM 53.6 °F - 17.6 °F 24% 29.91 in 10.0 mi Calm Calm - N/A   Clear
5:15 PM 55.4 °F - 19.4 °F 25% 29.91 in 10.0 mi WNW 8.1 mph 18.4 mph N/A   Clear
5:35 PM 55.4 °F - 19.4 °F 25% 29.91 in 10.0 mi NW 9.2 mph 16.1 mph N/A   Clear
5:45 PM 55.4 °F - 17.6 °F 23% 29.92 in 10.0 mi NW 10.4 mph - N/A   Clear
5:55 PM 55.4 °F - 17.6 °F 23% 29.91 in 10.0 mi NW 11.5 mph - N/A   Clear
7:15 PM - - - N/A% - - North - - N/A   Unknown
7:35 PM 48.2 °F - 19.4 °F 32% 29.93 in 10.0 mi North 8.1 mph - N/A   Unknown
8:15 PM 46.4 °F 42.4 °F 19.4 °F 34% 29.94 in 10.0 mi North 8.1 mph - N/A   Clear
8:35 PM 46.4 °F 43.5 °F 19.4 °F 34% 29.95 in 10.0 mi NNW 5.8 mph - N/A   Clear
8:55 PM 44.6 °F 40.7 °F 19.4 °F 37% 29.96 in 10.0 mi North 6.9 mph - N/A   Clear
9:15 PM 44.6 °F 39.7 °F 21.2 °F 39% 29.97 in 10.0 mi North 9.2 mph - N/A   Clear
9:35 PM 44.6 °F 39.7 °F 21.2 °F 39% 29.97 in 10.0 mi North 9.2 mph - N/A   Clear
9:55 PM 44.6 °F 40.7 °F 21.2 °F 39% 29.98 in 10.0 mi North 6.9 mph - N/A   Clear
10:15 PM 42.8 °F 38.6 °F 23.0 °F 46% 29.98 in 10.0 mi North 6.9 mph - N/A   Clear
10:35 PM 44.6 °F 43.1 °F 21.2 °F 39% 29.99 in 10.0 mi North 3.5 mph - N/A   Clear
10:55 PM 42.8 °F 41.1 °F 21.2 °F 42% 29.99 in 10.0 mi NNW 3.5 mph - N/A   Clear
11:15 PM 42.8 °F 40.1 °F 21.2 °F 42% 29.99 in 10.0 mi North 4.6 mph - N/A   Clear
11:35 PM 42.8 °F 37.5 °F 23.0 °F 46% 29.99 in 10.0 mi North 9.2 mph - N/A   Clear
11:55 PM 42.8 °F 38.0 °F 23.0 °F 46% 29.99 in 10.0 mi North 8.1 mph - N/A   Clear